Flight Track Log - Related Links

Times and Time Zones

All times are in EDT time to prevent confusion due to time zone crossing. See the GJS3710 flight status page for this flight to view local times or setup timezone preferences in your user account.

Time Position Orientation Groundspeed Altitude Reporting Facility
EDT Latitude Longitude Course Direction KTS MPH feet Rate Location/Type
Wed 09:17:30 PM 41.9333 -87.9000 66° East 170 196 2,200  Level Chicago TRACON
Wed 09:18:31 PM 41.9167 -87.8333 109° East 206 237 4,500 2,272 Climbing Chicago TRACON
Wed 09:20:00 PM 42.1524 -87.3929 66° East  Level FlightAware Approximate
Wed 09:20:56 PM 41.8919 -87.6217 99° East 287 330 10,000  Level Chicago Center
Wed 09:21:00 PM 42.1964 -87.2609 66° East  Level FlightAware Approximate
Wed 09:21:57 PM 41.9536 -87.5125 53° Northeast 314 361 13,500  Level Chicago Center
Wed 09:22:00 PM 42.2404 -87.1289 66° East  Level FlightAware Approximate
Wed 09:22:59 PM 42.0139 -87.4258 47° Northeast 319 367 15,900  Level Chicago Center
Wed 09:24:01 PM 42.0269 -87.3061 82° East 326 375 18,100 2,129 Climbing Chicago Center
Wed 09:25:03 PM 42.0375 -87.1831 83° East 331 381 20,300 2,049 Climbing Chicago Center
Wed 09:26:04 PM 42.0486 -87.0547 83° East 345 397 22,300 1,951 Climbing Chicago Center
Wed 09:27:06 PM 42.0614 -86.9269 82° East 346 398 24,300 2,081 Climbing Chicago Center
Wed 09:28:08 PM 42.0753 -86.7692 83° East 354 407 26,600 1,790 Climbing Chicago Center
Wed 09:29:10 PM 42.0864 -86.6308 84° East 361 415 28,000 1,268 Climbing Chicago Center
Wed 09:30:11 PM 42.0981 -86.4911 84° East 374 430 29,200 1,122 Climbing Chicago Center
Wed 09:31:13 PM 42.1111 -86.3467 83° East 386 444 30,300 1,161 Climbing Chicago Center
Wed 09:32:15 PM 42.1247 -86.1975 83° East 399 459 31,600 1,171 Climbing Chicago Center
Wed 09:33:16 PM 42.1361 -86.0481 84° East 400 460 32,700 683 Climbing Chicago Center
Wed 09:34:18 PM 42.1506 -85.8758 83° East 410 472 33,000 146 Climbing Chicago Center
Wed 09:35:19 PM 42.1636 -85.7094 84° East 435 501 33,000 439 Level Chicago Center
Wed 09:36:21 PM 42.1761 -85.5478 84° East 445 512 33,900 968 Climbing Chicago Center
Wed 09:37:23 PM 42.1897 -85.3875 83° East 437 503 35,000 1,000 Climbing Chicago Center
Wed 09:37:57 PM 42.1989 -85.2956 82° East 445 512 35,500 894 Climbing Cleveland Center
Wed 09:38:57 PM 42.2117 -85.1336 84° East 439 505 36,400 800 Climbing Cleveland Center
Wed 09:39:57 PM 42.2242 -84.9747 84° East 434 499 37,100 600 Climbing Cleveland Center
Wed 09:40:57 PM 42.2303 -84.8069 87° East 440 506 37,600 500 Climbing Cleveland Center
Wed 09:41:57 PM 42.2431 -84.6308 84° East 435 501 38,100 500 Climbing Cleveland Center
Wed 09:42:57 PM 42.2531 -84.4631 85° East 440 506 38,600 450 Climbing Cleveland Center
Wed 09:43:57 PM 42.2647 -84.2983 84° East 440 506 39,000 200 Climbing Cleveland Center
Wed 09:44:57 PM 42.2761 -84.1306 85° East 440 506 39,000  Level Cleveland Center
Wed 09:45:57 PM 42.2875 -83.9656 85° East 440 506 39,000  Level Cleveland Center
Wed 09:46:57 PM 42.2983 -83.8003 85° East 440 506 39,000  Level Cleveland Center
Wed 09:47:57 PM 42.3092 -83.6353 85° East 434 499 39,000  Level Cleveland Center
Wed 09:48:57 PM 42.3172 -83.4869 86° East 441 507 39,000  Level Cleveland Center
Wed 09:49:57 PM 42.3253 -83.3242 86° East 436 502 39,000  Level Cleveland Center
Wed 09:50:57 PM 42.3356 -83.1561 85° East 436 502 39,000  Level Cleveland Center
Wed 09:51:57 PM 42.3453 -82.9936 85° East 436 502 39,000  Level Cleveland Center
Wed 09:52:57 PM 42.3528 -82.8367 86° East 436 502 39,000  Level Cleveland Center
Wed 09:53:57 PM 42.3619 -82.6767 86° East 431 496 39,000  Level Cleveland Center
Wed 09:54:57 PM 42.3689 -82.5139 87° East 431 496 39,000  Level Cleveland Center
Wed 09:55:57 PM 42.3778 -82.3483 86° East 426 490 39,000  Level Cleveland Center
Wed 09:56:57 PM 42.3864 -82.1883 86° East 426 490 39,000  Level Cleveland Center
Wed 09:57:57 PM 42.3972 -82.0086 85° East 426 490 39,000  Level Cleveland Center
Wed 09:58:57 PM 42.4033 -81.8456 87° East 426 490 39,000  Level Cleveland Center
Wed 09:59:57 PM 42.4108 -81.7053 86° East 426 490 39,000  Level Cleveland Center
Wed 10:00:57 PM 42.4186 -81.5422 86° East 426 490 39,000  Level Cleveland Center
Wed 10:01:57 PM 42.4242 -81.3792 87° East 426 490 39,000  Level Cleveland Center
Wed 10:02:57 PM 42.4292 -81.2133 88° East 431 496 39,000  Level Cleveland Center
Wed 10:03:57 PM 42.4383 -81.0503 86° East 431 496 39,000  Level Cleveland Center
Wed 10:04:57 PM 42.4453 -80.8731 87° East 431 496 39,000  Level Cleveland Center
Wed 10:05:57 PM 42.4497 -80.7097 88° East 441 507 39,000  Level Cleveland Center
Wed 10:06:57 PM 42.4603 -80.5408 85° East 441 507 39,000  Level Cleveland Center
Wed 10:07:57 PM 42.4725 -80.3778 84° East 441 507 39,000  Level Cleveland Center
Wed 10:08:57 PM 42.4847 -80.2144 84° East 441 507 39,000  Level Cleveland Center
Wed 10:09:57 PM 42.4964 -80.0508 84° East 441 507 39,000  Level Cleveland Center
Wed 10:10:57 PM 42.5081 -79.8847 85° East 441 507 39,000  Level Cleveland Center
Wed 10:11:57 PM 42.5194 -79.7183 85° East 441 507 39,000  Level Cleveland Center
Wed 10:12:57 PM 42.5286 -79.5547 86° East 441 507 39,000  Level Cleveland Center
Wed 10:13:57 PM 42.5417 -79.3911 84° East 441 507 39,000  Level Cleveland Center
Wed 10:14:57 PM 42.5522 -79.2247 85° East 441 507 39,000  Level Cleveland Center
Wed 10:15:57 PM 42.5606 -79.0611 86° East 441 507 39,000 -300 Level Cleveland Center
Wed 10:16:57 PM 42.5708 -78.8944 85° East 441 507 38,400 -800 Descending Cleveland Center
Wed 10:17:57 PM 42.5808 -78.7250 85° East 446 513 37,400 -1,250 Descending Cleveland Center
Wed 10:18:57 PM 42.5883 -78.5611 86° East 440 506 35,900 -1,500 Descending Cleveland Center
Wed 10:19:57 PM 42.5981 -78.4028 85° East 435 501 34,400 -1,350 Descending Cleveland Center
Wed 10:20:57 PM 42.6056 -78.2475 86° East 424 488 33,200 -700 Descending Cleveland Center
Wed 10:21:57 PM 42.6147 -78.0947 85° East 414 476 33,000 -100 Descending Cleveland Center
Wed 10:22:57 PM 42.6217 -77.9336 87° East 414 476 33,000 -400 Level Cleveland Center
Wed 10:23:57 PM 42.6303 -77.7781 86° East 414 476 32,200 -900 Descending Cleveland Center
Wed 10:24:57 PM 42.6347 -77.6142 88° East 420 483 31,200 -1,000 Descending Cleveland Center
Wed 10:25:57 PM 42.6431 -77.4583 86° East 425 489 30,200 -670 Descending Cleveland Center
Wed 10:28:14 PM 42.6594 -77.0939 86° East 418 481 29,000 -365 Descending Boston Center
Wed 10:29:14 PM 42.6636 -76.9358 88° East 418 481 29,000  Level Boston Center
Wed 10:30:14 PM 42.6697 -76.7808 87° East 418 481 29,000  Level Boston Center
Wed 10:31:14 PM 42.6778 -76.6233 86° East 418 481 29,000  Level Boston Center
Wed 10:32:14 PM 42.6836 -76.4597 87° East 423 487 29,000  Level Boston Center
Wed 10:33:14 PM 42.6894 -76.2961 87° East 423 487 29,000  Level Boston Center
Wed 10:34:14 PM 42.6964 -76.1497 86° East 423 487 29,000  Level Boston Center
Wed 10:35:14 PM 42.6992 -75.9917 89° East 423 487 29,000  Level Boston Center
Wed 10:36:14 PM 42.7061 -75.8308 87° East 418 481 29,000  Level Boston Center
Wed 10:37:14 PM 42.7108 -75.6758 88° East 418 481 29,000 -600 Level Boston Center
Wed 10:38:14 PM 42.7131 -75.5175 89° East 418 481 27,800 -1,850 Descending Boston Center
Wed 10:39:14 PM 42.7172 -75.3650 88° East 418 481 25,300 -2,500 Descending Boston Center
Wed 10:40:14 PM 42.7228 -75.2211 87° East 396 456 22,800 -2,500 Descending Boston Center
Wed 10:41:14 PM 42.7261 -75.0828 88° East 380 437 20,300 -2,420 Descending Boston Center
Wed 10:42:13 PM 42.7272 -74.9444 89° East 356 410 18,000 -2,530 Descending Boston Center
Wed 10:42:37 PM 42.7306 -74.8850 86° East 344 396 16,800 -2,656 Descending Boston Center
Wed 10:43:14 PM 42.7322 -74.8061 88° East 347 399 15,300 -2,361 Descending Boston Center
Wed 10:43:38 PM 42.7311 -74.7608 92° East 332 382 14,400 -2,300 Descending Boston Center
Wed 10:44:14 PM 42.7347 -74.6844 86° East 333 383 13,000 -2,500 Descending Boston Center
Wed 10:44:38 PM 42.7356 -74.6394 89° East 322 371 11,900 -1,900 Descending Boston Center
Wed 10:45:14 PM 42.7369 -74.5658 89° East 317 365 11,100 -885 Descending Boston Center
Wed 10:45:39 PM 42.7378 -74.5264 88° East 291 335 11,000 -500 Descending Boston Center
Wed 10:46:14 PM 42.7450 -74.4700 80° East 280 322 10,600 -1,000 Descending Boston Center
Wed 10:46:39 PM 42.7581 -74.4336 64° Northeast 242 278 10,000 -1,400 Descending Boston Center
Wed 10:47:14 PM 42.7756 -74.3806 66° East 249 287 9,200 -1,279 Descending Boston Center
Wed 10:47:40 PM 42.7889 -74.3414 65° Northeast 266 306 8,700 -1,200 Descending Boston Center
Wed 10:48:14 PM 42.8044 -74.2822 70° East 261 300 8,000 -1,279 Descending Boston Center
Wed 10:48:41 PM 42.8175 -74.2431 66° East 288 331 7,400 -1,400 Descending Boston Center
Wed 10:49:14 PM 42.8247 -74.1811 81° East 271 312 6,600 -1,400 Descending Boston Center
Wed 10:49:41 PM 42.8294 -74.1417 81° East 270 311 6,000 -1,400 Descending Boston Center
Wed 10:50:14 PM 42.8303 -74.0822 89° East 265 305 5,200 -1,672 Descending Boston Center
Wed 10:50:42 PM 42.8331 -74.0369 85° East 258 297 4,300 -1,600 Descending Boston Center
Wed 10:51:14 PM 42.8358 -73.9917 85° East 252 290 3,600 -1,075 Descending Boston Center
Wed 10:51:49 PM 42.8408 -73.9381 83° East 242 278 3,100 -600 Descending Boston Center
Wed 10:52:14 PM 42.8433 -73.9042 84° East 245 282 3,000 -600 Descending Boston Center
Wed 10:52:49 PM 42.8481 -73.8589 82° East 194 223 2,500  Descending Boston Center
Wed 10:53:14 PM 42.8506 -73.8164 85° East 245 282 3,000 -873 Climbing Boston Center
Wed 10:53:44 PM 42.8297 -73.8131 173° South 151 174 1,700 -1,250 Descending Boston Center
Wed 10:54:50 PM 42.7903 -73.8094 176° South 106 122 1,000 -636 Descending Boston Center

Login

Don't have an account? Register now (free) for customized features, flight alerts, and more!